sensor_id;sensor_type;location;lat;lon;timestamp;P1;durP1;ratioP1;P2;durP2;ratioP2
53503;SDS011;39387;50.998;22.340;2022-07-31T00:00:47;7.38;;;4.95;;
53503;SDS011;39387;50.998;22.340;2022-07-31T00:03:14;6.60;;;4.90;;
53503;SDS011;39387;50.998;22.340;2022-07-31T00:05:41;6.53;;;4.72;;
53503;SDS011;39387;50.998;22.340;2022-07-31T00:08:09;7.28;;;4.78;;
53503;SDS011;39387;50.998;22.340;2022-07-31T00:10:36;8.48;;;4.72;;
53503;SDS011;39387;50.998;22.340;2022-07-31T00:13:04;6.28;;;4.65;;
53503;SDS011;39387;50.998;22.340;2022-07-31T00:15:31;8.80;;;4.28;;
53503;SDS011;39387;50.998;22.340;2022-07-31T00:18:00;5.70;;;4.07;;
53503;SDS011;39387;50.998;22.340;2022-07-31T00:20:27;7.22;;;4.30;;
53503;SDS011;39387;50.998;22.340;2022-07-31T00:22:54;6.40;;;4.28;;
53503;SDS011;39387;50.998;22.340;2022-07-31T00:25:22;5.55;;;4.07;;
53503;SDS011;39387;50.998;22.340;2022-07-31T00:27:49;6.55;;;4.70;;
53503;SDS011;39387;50.998;22.340;2022-07-31T00:30:17;6.45;;;4.70;;
53503;SDS011;39387;50.998;22.340;2022-07-31T00:32:44;7.05;;;4.47;;
53503;SDS011;39387;50.998;22.340;2022-07-31T00:35:13;7.60;;;4.60;;
53503;SDS011;39387;50.998;22.340;2022-07-31T00:37:41;5.95;;;4.20;;
53503;SDS011;39387;50.998;22.340;2022-07-31T00:40:09;7.32;;;4.13;;
53503;SDS011;39387;50.998;22.340;2022-07-31T00:42:38;5.13;;;4.18;;
53503;SDS011;39387;50.998;22.340;2022-07-31T00:45:06;10.32;;;4.50;;
53503;SDS011;39387;50.998;22.340;2022-07-31T00:47:34;6.82;;;4.43;;
53503;SDS011;39387;50.998;22.340;2022-07-31T00:50:01;8.95;;;4.43;;
53503;SDS011;39387;50.998;22.340;2022-07-31T00:52:30;6.40;;;4.38;;
53503;SDS011;39387;50.998;22.340;2022-07-31T00:54:58;5.78;;;4.05;;
53503;SDS011;39387;50.998;22.340;2022-07-31T00:57:25;8.18;;;4.40;;
53503;SDS011;39387;50.998;22.340;2022-07-31T00:59:52;6.55;;;4.43;;
53503;SDS011;39387;50.998;22.340;2022-07-31T01:02:20;6.10;;;4.10;;
53503;SDS011;39387;50.998;22.340;2022-07-31T01:04:47;6.50;;;4.13;;
53503;SDS011;39387;50.998;22.340;2022-07-31T01:07:14;5.95;;;4.22;;
53503;SDS011;39387;50.998;22.340;2022-07-31T01:09:43;5.85;;;4.22;;
53503;SDS011;39387;50.998;22.340;2022-07-31T01:12:11;6.57;;;3.80;;
53503;SDS011;39387;50.998;22.340;2022-07-31T01:14:45;5.70;;;3.75;;
53503;SDS011;39387;50.998;22.340;2022-07-31T01:17:14;6.75;;;4.35;;
53503;SDS011;39387;50.998;22.340;2022-07-31T01:19:43;7.88;;;4.38;;
53503;SDS011;39387;50.998;22.340;2022-07-31T01:22:16;7.07;;;4.50;;
53503;SDS011;39387;50.998;22.340;2022-07-31T01:25:01;6.18;;;4.18;;
53503;SDS011;39387;50.998;22.340;2022-07-31T01:27:36;5.65;;;4.25;;
53503;SDS011;39387;50.998;22.340;2022-07-31T01:30:15;6.18;;;4.07;;
53503;SDS011;39387;50.998;22.340;2022-07-31T01:32:45;7.05;;;4.47;;
53503;SDS011;39387;50.998;22.340;2022-07-31T01:35:14;7.50;;;4.38;;
53503;SDS011;39387;50.998;22.340;2022-07-31T01:37:44;6.43;;;4.17;;
53503;SDS011;39387;50.998;22.340;2022-07-31T01:40:14;8.23;;;4.78;;
53503;SDS011;39387;50.998;22.340;2022-07-31T01:42:54;6.18;;;4.00;;
53503;SDS011;39387;50.998;22.340;2022-07-31T01:45:26;5.75;;;4.20;;
53503;SDS011;39387;50.998;22.340;2022-07-31T01:47:53;6.40;;;4.20;;
53503;SDS011;39387;50.998;22.340;2022-07-31T01:50:22;7.15;;;4.53;;
53503;SDS011;39387;50.998;22.340;2022-07-31T01:52:50;6.97;;;4.30;;
53503;SDS011;39387;50.998;22.340;2022-07-31T01:55:17;7.05;;;4.63;;
53503;SDS011;39387;50.998;22.340;2022-07-31T01:57:45;7.07;;;4.15;;
53503;SDS011;39387;50.998;22.340;2022-07-31T02:00:13;9.63;;;5.35;;
53503;SDS011;39387;50.998;22.340;2022-07-31T02:02:44;7.53;;;4.30;;
53503;SDS011;39387;50.998;22.340;2022-07-31T02:05:13;6.88;;;4.30;;
53503;SDS011;39387;50.998;22.340;2022-07-31T02:07:42;6.95;;;4.50;;
53503;SDS011;39387;50.998;22.340;2022-07-31T02:10:12;7.45;;;4.63;;
53503;SDS011;39387;50.998;22.340;2022-07-31T02:12:40;6.35;;;4.38;;
53503;SDS011;39387;50.998;22.340;2022-07-31T02:15:08;8.43;;;4.57;;
53503;SDS011;39387;50.998;22.340;2022-07-31T02:17:38;8.32;;;4.90;;
53503;SDS011;39387;50.998;22.340;2022-07-31T02:20:09;9.73;;;5.20;;
53503;SDS011;39387;50.998;22.340;2022-07-31T02:22:37;9.30;;;5.18;;
53503;SDS011;39387;50.998;22.340;2022-07-31T02:25:05;8.43;;;5.30;;
53503;SDS011;39387;50.998;22.340;2022-07-31T02:27:33;9.43;;;5.85;;
53503;SDS011;39387;50.998;22.340;2022-07-31T02:30:02;7.88;;;5.53;;
53503;SDS011;39387;50.998;22.340;2022-07-31T02:32:31;9.30;;;6.32;;
53503;SDS011;39387;50.998;22.340;2022-07-31T02:34:59;10.18;;;6.65;;
53503;SDS011;39387;50.998;22.340;2022-07-31T02:37:29;11.40;;;6.90;;
53503;SDS011;39387;50.998;22.340;2022-07-31T02:39:57;12.90;;;7.70;;
53503;SDS011;39387;50.998;22.340;2022-07-31T02:42:25;14.23;;;7.80;;
53503;SDS011;39387;50.998;22.340;2022-07-31T02:44:53;12.13;;;7.32;;
53503;SDS011;39387;50.998;22.340;2022-07-31T02:47:21;23.42;;;11.90;;
53503;SDS011;39387;50.998;22.340;2022-07-31T02:49:49;21.42;;;11.20;;
53503;SDS011;39387;50.998;22.340;2022-07-31T02:52:19;24.47;;;13.00;;
53503;SDS011;39387;50.998;22.340;2022-07-31T02:54:48;22.42;;;11.57;;
53503;SDS011;39387;50.998;22.340;2022-07-31T02:57:16;17.07;;;10.60;;
53503;SDS011;39387;50.998;22.340;2022-07-31T02:59:43;14.55;;;8.63;;
53503;SDS011;39387;50.998;22.340;2022-07-31T03:02:11;15.77;;;9.73;;
53503;SDS011;39387;50.998;22.340;2022-07-31T03:04:38;13.27;;;8.85;;
53503;SDS011;39387;50.998;22.340;2022-07-31T03:07:05;14.43;;;8.32;;
53503;SDS011;39387;50.998;22.340;2022-07-31T03:09:33;11.88;;;8.23;;
53503;SDS011;39387;50.998;22.340;2022-07-31T03:12:02;12.20;;;8.05;;
53503;SDS011;39387;50.998;22.340;2022-07-31T03:14:30;15.00;;;8.88;;
53503;SDS011;39387;50.998;22.340;2022-07-31T03:16:58;12.05;;;7.43;;
53503;SDS011;39387;50.998;22.340;2022-07-31T03:19:26;9.82;;;6.97;;
53503;SDS011;39387;50.998;22.340;2022-07-31T03:21:54;9.77;;;6.72;;
53503;SDS011;39387;50.998;22.340;2022-07-31T03:24:21;10.82;;;7.18;;
53503;SDS011;39387;50.998;22.340;2022-07-31T03:26:50;9.10;;;6.50;;
53503;SDS011;39387;50.998;22.340;2022-07-31T03:29:19;9.00;;;6.88;;
53503;SDS011;39387;50.998;22.340;2022-07-31T03:31:46;8.93;;;6.35;;
53503;SDS011;39387;50.998;22.340;2022-07-31T03:34:14;10.05;;;7.10;;
53503;SDS011;39387;50.998;22.340;2022-07-31T03:36:41;8.90;;;6.20;;
53503;SDS011;39387;50.998;22.340;2022-07-31T03:39:09;11.43;;;7.57;;
53503;SDS011;39387;50.998;22.340;2022-07-31T03:41:36;10.32;;;6.93;;
53503;SDS011;39387;50.998;22.340;2022-07-31T03:44:04;8.70;;;6.60;;
53503;SDS011;39387;50.998;22.340;2022-07-31T03:46:33;10.85;;;7.93;;
53503;SDS011;39387;50.998;22.340;2022-07-31T03:49:00;12.55;;;8.02;;
53503;SDS011;39387;50.998;22.340;2022-07-31T03:51:27;15.95;;;9.43;;
53503;SDS011;39387;50.998;22.340;2022-07-31T03:53:55;14.85;;;8.60;;
53503;SDS011;39387;50.998;22.340;2022-07-31T03:56:22;11.88;;;7.85;;
53503;SDS011;39387;50.998;22.340;2022-07-31T03:58:50;12.50;;;8.10;;
53503;SDS011;39387;50.998;22.340;2022-07-31T04:01:17;14.35;;;8.82;;
53503;SDS011;39387;50.998;22.340;2022-07-31T04:03:47;14.43;;;9.18;;
53503;SDS011;39387;50.998;22.340;2022-07-31T04:06:14;14.70;;;9.38;;
53503;SDS011;39387;50.998;22.340;2022-07-31T04:08:42;11.77;;;8.48;;
53503;SDS011;39387;50.998;22.340;2022-07-31T04:11:09;12.45;;;8.25;;
53503;SDS011;39387;50.998;22.340;2022-07-31T04:13:36;16.45;;;9.98;;
53503;SDS011;39387;50.998;22.340;2022-07-31T04:16:03;14.55;;;8.90;;
53503;SDS011;39387;50.998;22.340;2022-07-31T04:18:31;13.98;;;9.30;;
53503;SDS011;39387;50.998;22.340;2022-07-31T04:21:00;15.63;;;9.40;;
53503;SDS011;39387;50.998;22.340;2022-07-31T04:23:27;13.18;;;9.52;;
53503;SDS011;39387;50.998;22.340;2022-07-31T04:25:55;12.50;;;8.73;;
53503;SDS011;39387;50.998;22.340;2022-07-31T04:28:22;13.25;;;9.45;;
53503;SDS011;39387;50.998;22.340;2022-07-31T04:30:50;15.57;;;9.77;;
53503;SDS011;39387;50.998;22.340;2022-07-31T04:33:18;14.60;;;10.13;;
53503;SDS011;39387;50.998;22.340;2022-07-31T04:35:45;13.27;;;8.88;;
53503;SDS011;39387;50.998;22.340;2022-07-31T04:38:14;13.73;;;8.50;;
53503;SDS011;39387;50.998;22.340;2022-07-31T04:40:42;14.98;;;10.00;;
53503;SDS011;39387;50.998;22.340;2022-07-31T04:43:09;14.05;;;9.18;;
53503;SDS011;39387;50.998;22.340;2022-07-31T04:45:37;14.13;;;9.30;;
53503;SDS011;39387;50.998;22.340;2022-07-31T04:48:04;14.95;;;10.13;;
53503;SDS011;39387;50.998;22.340;2022-07-31T04:50:32;15.43;;;10.07;;
53503;SDS011;39387;50.998;22.340;2022-07-31T04:52:59;15.75;;;10.35;;
53503;SDS011;39387;50.998;22.340;2022-07-31T04:55:28;19.05;;;10.70;;
53503;SDS011;39387;50.998;22.340;2022-07-31T04:57:56;19.17;;;11.18;;
53503;SDS011;39387;50.998;22.340;2022-07-31T05:00:23;15.15;;;10.85;;
53503;SDS011;39387;50.998;22.340;2022-07-31T05:02:51;15.35;;;10.60;;
53503;SDS011;39387;50.998;22.340;2022-07-31T05:05:18;14.23;;;9.98;;
53503;SDS011;39387;50.998;22.340;2022-07-31T05:07:46;16.23;;;11.50;;
53503;SDS011;39387;50.998;22.340;2022-07-31T05:10:13;16.58;;;11.57;;
53503;SDS011;39387;50.998;22.340;2022-07-31T05:12:56;17.80;;;11.98;;
53503;SDS011;39387;50.998;22.340;2022-07-31T05:15:23;15.80;;;10.65;;
53503;SDS011;39387;50.998;22.340;2022-07-31T05:17:50;14.88;;;10.73;;
53503;SDS011;39387;50.998;22.340;2022-07-31T05:20:18;13.82;;;9.70;;
53503;SDS011;39387;50.998;22.340;2022-07-31T05:22:45;13.70;;;9.88;;
53503;SDS011;39387;50.998;22.340;2022-07-31T05:25:12;14.77;;;10.57;;
53503;SDS011;39387;50.998;22.340;2022-07-31T05:27:40;15.30;;;11.07;;
53503;SDS011;39387;50.998;22.340;2022-07-31T05:30:09;18.88;;;12.57;;
53503;SDS011;39387;50.998;22.340;2022-07-31T05:32:37;20.42;;;12.85;;
53503;SDS011;39387;50.998;22.340;2022-07-31T05:35:05;17.38;;;11.48;;
53503;SDS011;39387;50.998;22.340;2022-07-31T05:37:33;14.73;;;10.40;;
53503;SDS011;39387;50.998;22.340;2022-07-31T05:40:00;16.95;;;11.15;;
53503;SDS011;39387;50.998;22.340;2022-07-31T05:42:28;20.00;;;11.40;;
53503;SDS011;39387;50.998;22.340;2022-07-31T05:44:55;16.88;;;10.57;;
53503;SDS011;39387;50.998;22.340;2022-07-31T05:47:24;16.85;;;11.05;;
53503;SDS011;39387;50.998;22.340;2022-07-31T05:49:51;18.45;;;11.82;;
53503;SDS011;39387;50.998;22.340;2022-07-31T05:52:18;15.88;;;10.20;;
53503;SDS011;39387;50.998;22.340;2022-07-31T05:54:46;14.75;;;10.25;;
53503;SDS011;39387;50.998;22.340;2022-07-31T05:57:13;19.10;;;11.95;;
53503;SDS011;39387;50.998;22.340;2022-07-31T05:59:40;15.85;;;10.00;;
53503;SDS011;39387;50.998;22.340;2022-07-31T06:02:08;18.65;;;11.13;;
53503;SDS011;39387;50.998;22.340;2022-07-31T06:04:37;20.65;;;12.15;;
53503;SDS011;39387;50.998;22.340;2022-07-31T06:07:04;22.58;;;13.25;;
53503;SDS011;39387;50.998;22.340;2022-07-31T06:09:31;19.77;;;11.63;;
53503;SDS011;39387;50.998;22.340;2022-07-31T06:11:59;19.98;;;11.25;;
53503;SDS011;39387;50.998;22.340;2022-07-31T06:14:26;17.85;;;10.70;;
53503;SDS011;39387;50.998;22.340;2022-07-31T06:16:53;19.20;;;11.35;;
53503;SDS011;39387;50.998;22.340;2022-07-31T06:19:21;17.13;;;10.27;;
53503;SDS011;39387;50.998;22.340;2022-07-31T06:21:50;20.63;;;11.23;;
53503;SDS011;39387;50.998;22.340;2022-07-31T06:24:17;17.75;;;10.40;;
53503;SDS011;39387;50.998;22.340;2022-07-31T06:26:44;19.02;;;11.57;;
53503;SDS011;39387;50.998;22.340;2022-07-31T06:29:12;19.05;;;11.05;;
53503;SDS011;39387;50.998;22.340;2022-07-31T06:31:39;16.05;;;9.52;;
53503;SDS011;39387;50.998;22.340;2022-07-31T06:34:07;19.33;;;11.93;;
53503;SDS011;39387;50.998;22.340;2022-07-31T06:36:34;16.30;;;10.65;;
53503;SDS011;39387;50.998;22.340;2022-07-31T06:39:03;16.80;;;10.60;;
53503;SDS011;39387;50.998;22.340;2022-07-31T06:41:30;16.58;;;10.10;;
53503;SDS011;39387;50.998;22.340;2022-07-31T06:44:20;13.65;;;9.75;;
53503;SDS011;39387;50.998;22.340;2022-07-31T06:46:48;16.25;;;9.90;;
53503;SDS011;39387;50.998;22.340;2022-07-31T06:49:16;15.60;;;10.05;;
53503;SDS011;39387;50.998;22.340;2022-07-31T06:51:44;14.00;;;9.25;;
53503;SDS011;39387;50.998;22.340;2022-07-31T06:54:13;14.00;;;9.57;;
53503;SDS011;39387;50.998;22.340;2022-07-31T06:56:41;15.52;;;9.70;;
53503;SDS011;39387;50.998;22.340;2022-07-31T06:59:09;16.90;;;10.68;;
53503;SDS011;39387;50.998;22.340;2022-07-31T07:01:36;16.30;;;10.73;;
53503;SDS011;39387;50.998;22.340;2022-07-31T07:04:04;14.75;;;9.50;;
53503;SDS011;39387;50.998;22.340;2022-07-31T07:06:31;15.60;;;9.55;;
53503;SDS011;39387;50.998;22.340;2022-07-31T07:08:58;14.70;;;10.32;;
53503;SDS011;39387;50.998;22.340;2022-07-31T07:11:27;13.82;;;9.43;;
53503;SDS011;39387;50.998;22.340;2022-07-31T07:13:54;12.13;;;9.05;;
53503;SDS011;39387;50.998;22.340;2022-07-31T07:16:22;12.35;;;8.57;;
53503;SDS011;39387;50.998;22.340;2022-07-31T07:18:49;10.07;;;7.85;;
53503;SDS011;39387;50.998;22.340;2022-07-31T07:21:17;14.93;;;9.43;;
53503;SDS011;39387;50.998;22.340;2022-07-31T07:23:45;13.40;;;9.60;;
53503;SDS011;39387;50.998;22.340;2022-07-31T07:26:12;13.18;;;9.27;;
53503;SDS011;39387;50.998;22.340;2022-07-31T07:28:41;13.30;;;9.65;;
53503;SDS011;39387;50.998;22.340;2022-07-31T07:31:08;12.43;;;9.10;;
53503;SDS011;39387;50.998;22.340;2022-07-31T07:33:36;13.55;;;8.43;;
53503;SDS011;39387;50.998;22.340;2022-07-31T07:36:03;13.82;;;8.50;;
53503;SDS011;39387;50.998;22.340;2022-07-31T07:38:31;11.57;;;7.85;;
53503;SDS011;39387;50.998;22.340;2022-07-31T07:40:58;11.68;;;8.55;;
53503;SDS011;39387;50.998;22.340;2022-07-31T07:43:25;12.63;;;8.63;;
53503;SDS011;39387;50.998;22.340;2022-07-31T07:45:55;13.27;;;9.05;;
53503;SDS011;39387;50.998;22.340;2022-07-31T07:48:22;12.15;;;8.30;;
53503;SDS011;39387;50.998;22.340;2022-07-31T07:50:49;14.10;;;8.73;;
53503;SDS011;39387;50.998;22.340;2022-07-31T07:53:17;12.63;;;8.65;;
53503;SDS011;39387;50.998;22.340;2022-07-31T07:55:44;11.00;;;8.40;;
53503;SDS011;39387;50.998;22.340;2022-07-31T07:58:11;12.52;;;8.10;;
53503;SDS011;39387;50.998;22.340;2022-07-31T08:00:39;9.63;;;7.65;;
53503;SDS011;39387;50.998;22.340;2022-07-31T08:03:08;11.00;;;8.38;;
53503;SDS011;39387;50.998;22.340;2022-07-31T08:05:35;9.73;;;7.75;;
53503;SDS011;39387;50.998;22.340;2022-07-31T08:08:03;9.20;;;7.50;;
53503;SDS011;39387;50.998;22.340;2022-07-31T08:10:30;9.77;;;7.15;;
53503;SDS011;39387;50.998;22.340;2022-07-31T08:12:57;9.57;;;7.60;;
53503;SDS011;39387;50.998;22.340;2022-07-31T08:15:25;7.82;;;6.32;;
53503;SDS011;39387;50.998;22.340;2022-07-31T08:17:54;10.35;;;7.40;;
53503;SDS011;39387;50.998;22.340;2022-07-31T08:20:23;10.30;;;7.53;;
53503;SDS011;39387;50.998;22.340;2022-07-31T08:22:50;10.07;;;7.22;;
53503;SDS011;39387;50.998;22.340;2022-07-31T08:25:19;9.18;;;7.60;;
53503;SDS011;39387;50.998;22.340;2022-07-31T08:27:47;10.45;;;8.05;;
53503;SDS011;39387;50.998;22.340;2022-07-31T08:30:15;11.60;;;8.63;;
53503;SDS011;39387;50.998;22.340;2022-07-31T08:32:42;9.02;;;7.95;;
53503;SDS011;39387;50.998;22.340;2022-07-31T08:35:10;10.27;;;8.35;;
53503;SDS011;39387;50.998;22.340;2022-07-31T08:37:40;9.15;;;7.55;;
53503;SDS011;39387;50.998;22.340;2022-07-31T08:40:08;9.18;;;7.78;;
53503;SDS011;39387;50.998;22.340;2022-07-31T08:42:36;9.13;;;7.72;;
53503;SDS011;39387;50.998;22.340;2022-07-31T08:45:04;8.60;;;7.28;;
53503;SDS011;39387;50.998;22.340;2022-07-31T08:47:32;8.52;;;7.57;;
53503;SDS011;39387;50.998;22.340;2022-07-31T08:50:01;8.88;;;7.22;;
53503;SDS011;39387;50.998;22.340;2022-07-31T08:52:30;9.40;;;7.03;;
53503;SDS011;39387;50.998;22.340;2022-07-31T08:55:00;9.18;;;7.60;;
53503;SDS011;39387;50.998;22.340;2022-07-31T08:57:33;8.07;;;7.03;;
53503;SDS011;39387;50.998;22.340;2022-07-31T09:00:03;7.60;;;6.78;;
53503;SDS011;39387;50.998;22.340;2022-07-31T09:02:31;7.97;;;7.00;;
53503;SDS011;39387;50.998;22.340;2022-07-31T09:04:59;8.75;;;7.22;;
53503;SDS011;39387;50.998;22.340;2022-07-31T09:07:26;8.77;;;7.32;;
53503;SDS011;39387;50.998;22.340;2022-07-31T09:09:54;7.57;;;6.78;;
53503;SDS011;39387;50.998;22.340;2022-07-31T09:12:30;7.90;;;7.03;;
53503;SDS011;39387;50.998;22.340;2022-07-31T09:14:58;8.52;;;6.75;;
53503;SDS011;39387;50.998;22.340;2022-07-31T09:17:32;6.57;;;5.85;;
53503;SDS011;39387;50.998;22.340;2022-07-31T09:20:00;6.93;;;6.22;;
53503;SDS011;39387;50.998;22.340;2022-07-31T09:22:28;7.00;;;6.22;;
53503;SDS011;39387;50.998;22.340;2022-07-31T09:25:06;6.55;;;5.95;;
53503;SDS011;39387;50.998;22.340;2022-07-31T09:27:38;7.10;;;6.40;;
53503;SDS011;39387;50.998;22.340;2022-07-31T09:30:06;6.82;;;6.22;;
53503;SDS011;39387;50.998;22.340;2022-07-31T09:32:34;6.60;;;6.00;;
53503;SDS011;39387;50.998;22.340;2022-07-31T09:35:05;7.43;;;6.60;;
53503;SDS011;39387;50.998;22.340;2022-07-31T09:37:34;7.90;;;7.10;;
53503;SDS011;39387;50.998;22.340;2022-07-31T09:40:02;7.13;;;6.43;;
53503;SDS011;39387;50.998;22.340;2022-07-31T09:42:34;8.60;;;6.57;;
53503;SDS011;39387;50.998;22.340;2022-07-31T09:45:14;7.20;;;6.50;;
53503;SDS011;39387;50.998;22.340;2022-07-31T09:47:43;7.40;;;6.65;;
53503;SDS011;39387;50.998;22.340;2022-07-31T09:50:11;7.30;;;6.60;;
53503;SDS011;39387;50.998;22.340;2022-07-31T09:52:38;7.18;;;6.47;;
53503;SDS011;39387;50.998;22.340;2022-07-31T09:55:06;7.38;;;6.68;;
53503;SDS011;39387;50.998;22.340;2022-07-31T09:57:35;7.60;;;6.50;;
53503;SDS011;39387;50.998;22.340;2022-07-31T10:00:07;6.95;;;6.25;;
53503;SDS011;39387;50.998;22.340;2022-07-31T10:02:35;8.98;;;6.72;;
53503;SDS011;39387;50.998;22.340;2022-07-31T10:05:04;6.55;;;6.00;;
53503;SDS011;39387;50.998;22.340;2022-07-31T10:07:32;7.38;;;6.68;;
53503;SDS011;39387;50.998;22.340;2022-07-31T10:10:02;7.20;;;6.50;;
53503;SDS011;39387;50.998;22.340;2022-07-31T10:12:30;7.20;;;6.50;;
53503;SDS011;39387;50.998;22.340;2022-07-31T10:15:03;7.20;;;6.50;;
53503;SDS011;39387;50.998;22.340;2022-07-31T10:17:35;6.75;;;6.15;;
53503;SDS011;39387;50.998;22.340;2022-07-31T10:20:05;7.43;;;5.70;;
53503;SDS011;39387;50.998;22.340;2022-07-31T10:22:34;6.57;;;5.97;;
53503;SDS011;39387;50.998;22.340;2022-07-31T10:25:09;6.22;;;5.63;;
53503;SDS011;39387;50.998;22.340;2022-07-31T10:27:40;6.97;;;6.28;;
53503;SDS011;39387;50.998;22.340;2022-07-31T10:30:08;6.78;;;6.07;;
53503;SDS011;39387;50.998;22.340;2022-07-31T10:32:38;6.78;;;6.18;;
53503;SDS011;39387;50.998;22.340;2022-07-31T10:35:05;5.72;;;5.22;;
53503;SDS011;39387;50.998;22.340;2022-07-31T10:37:35;5.47;;;4.97;;
53503;SDS011;39387;50.998;22.340;2022-07-31T10:40:07;5.63;;;5.20;;
53503;SDS011;39387;50.998;22.340;2022-07-31T10:42:41;5.40;;;4.85;;
53503;SDS011;39387;50.998;22.340;2022-07-31T10:45:11;5.53;;;5.03;;
53503;SDS011;39387;50.998;22.340;2022-07-31T10:47:51;5.38;;;4.88;;
53503;SDS011;39387;50.998;22.340;2022-07-31T10:52:47;5.75;;;5.20;;
53503;SDS011;39387;50.998;22.340;2022-07-31T10:55:14;5.97;;;5.18;;
53503;SDS011;39387;50.998;22.340;2022-07-31T10:57:43;6.00;;;5.25;;
53503;SDS011;39387;50.998;22.340;2022-07-31T11:00:12;6.20;;;5.60;;
53503;SDS011;39387;50.998;22.340;2022-07-31T11:02:43;6.40;;;5.80;;
53503;SDS011;39387;50.998;22.340;2022-07-31T11:05:12;5.90;;;5.37;;
53503;SDS011;39387;50.998;22.340;2022-07-31T11:07:40;5.60;;;5.10;;
53503;SDS011;39387;50.998;22.340;2022-07-31T11:10:12;5.78;;;5.28;;
53503;SDS011;39387;50.998;22.340;2022-07-31T11:12:42;5.63;;;5.18;;
53503;SDS011;39387;50.998;22.340;2022-07-31T11:15:19;5.68;;;5.18;;
53503;SDS011;39387;50.998;22.340;2022-07-31T11:17:49;4.95;;;4.55;;
53503;SDS011;39387;50.998;22.340;2022-07-31T11:20:18;5.10;;;4.60;;
53503;SDS011;39387;50.998;22.340;2022-07-31T11:22:57;5.22;;;4.72;;
53503;SDS011;39387;50.998;22.340;2022-07-31T11:25:26;4.75;;;4.35;;
53503;SDS011;39387;50.998;22.340;2022-07-31T11:27:55;4.88;;;4.38;;
53503;SDS011;39387;50.998;22.340;2022-07-31T11:30:23;5.45;;;4.97;;
53503;SDS011;39387;50.998;22.340;2022-07-31T11:32:52;5.10;;;4.60;;
53503;SDS011;39387;50.998;22.340;2022-07-31T11:35:23;5.82;;;5.32;;
53503;SDS011;39387;50.998;22.340;2022-07-31T11:37:54;5.38;;;4.88;;
53503;SDS011;39387;50.998;22.340;2022-07-31T11:40:22;5.90;;;5.40;;
53503;SDS011;39387;50.998;22.340;2022-07-31T11:42:49;6.18;;;5.68;;
53503;SDS011;39387;50.998;22.340;2022-07-31T11:45:17;6.40;;;5.90;;
53503;SDS011;39387;50.998;22.340;2022-07-31T11:47:44;6.60;;;6.10;;
53503;SDS011;39387;50.998;22.340;2022-07-31T11:50:15;5.97;;;5.47;;
53503;SDS011;39387;50.998;22.340;2022-07-31T11:52:42;7.18;;;5.93;;
53503;SDS011;39387;50.998;22.340;2022-07-31T11:55:12;7.13;;;5.88;;
53503;SDS011;39387;50.998;22.340;2022-07-31T11:57:41;5.82;;;5.32;;
53503;SDS011;39387;50.998;22.340;2022-07-31T12:00:10;6.55;;;5.90;;
53503;SDS011;39387;50.998;22.340;2022-07-31T12:02:40;5.90;;;5.40;;
53503;SDS011;39387;50.998;22.340;2022-07-31T12:05:08;5.40;;;5.00;;
53503;SDS011;39387;50.998;22.340;2022-07-31T12:07:40;4.80;;;4.43;;
53503;SDS011;39387;50.998;22.340;2022-07-31T12:10:08;4.93;;;4.53;;
53503;SDS011;39387;50.998;22.340;2022-07-31T12:12:37;5.15;;;4.70;;
53503;SDS011;39387;50.998;22.340;2022-07-31T12:15:15;5.15;;;4.65;;
53503;SDS011;39387;50.998;22.340;2022-07-31T12:17:44;4.57;;;4.18;;
53503;SDS011;39387;50.998;22.340;2022-07-31T12:20:12;4.55;;;4.03;;
53503;SDS011;39387;50.998;22.340;2022-07-31T12:22:42;4.35;;;4.00;;
53503;SDS011;39387;50.998;22.340;2022-07-31T12:25:09;4.70;;;3.80;;
53503;SDS011;39387;50.998;22.340;2022-07-31T12:27:37;3.92;;;3.63;;
53503;SDS011;39387;50.998;22.340;2022-07-31T12:30:12;3.90;;;3.60;;
53503;SDS011;39387;50.998;22.340;2022-07-31T12:32:41;4.45;;;4.05;;
53503;SDS011;39387;50.998;22.340;2022-07-31T12:35:08;3.97;;;3.67;;
53503;SDS011;39387;50.998;22.340;2022-07-31T12:37:44;3.47;;;3.28;;
53503;SDS011;39387;50.998;22.340;2022-07-31T12:40:23;4.85;;;3.97;;
53503;SDS011;39387;50.998;22.340;2022-07-31T12:42:51;3.95;;;3.65;;
53503;SDS011;39387;50.998;22.340;2022-07-31T12:45:28;3.67;;;3.45;;
53503;SDS011;39387;50.998;22.340;2022-07-31T12:47:56;3.45;;;3.25;;
53503;SDS011;39387;50.998;22.340;2022-07-31T12:50:25;3.88;;;3.58;;
53503;SDS011;39387;50.998;22.340;2022-07-31T12:52:58;3.88;;;3.42;;
53503;SDS011;39387;50.998;22.340;2022-07-31T12:55:27;3.78;;;3.53;;
53503;SDS011;39387;50.998;22.340;2022-07-31T12:57:55;3.90;;;3.60;;
53503;SDS011;39387;50.998;22.340;2022-07-31T13:00:24;4.00;;;3.60;;
53503;SDS011;39387;50.998;22.340;2022-07-31T13:02:54;3.60;;;3.30;;
53503;SDS011;39387;50.998;22.340;2022-07-31T13:05:22;3.22;;;3.03;;
53503;SDS011;39387;50.998;22.340;2022-07-31T13:07:50;3.10;;;2.90;;
53503;SDS011;39387;50.998;22.340;2022-07-31T13:10:19;2.85;;;2.60;;
53503;SDS011;39387;50.998;22.340;2022-07-31T13:12:46;3.15;;;2.95;;
53503;SDS011;39387;50.998;22.340;2022-07-31T13:15:16;3.33;;;3.08;;
53503;SDS011;39387;50.998;22.340;2022-07-31T13:17:44;3.10;;;2.90;;
53503;SDS011;39387;50.998;22.340;2022-07-31T13:20:14;2.85;;;2.65;;
53503;SDS011;39387;50.998;22.340;2022-07-31T13:22:41;3.70;;;3.40;;
53503;SDS011;39387;50.998;22.340;2022-07-31T13:25:09;3.63;;;3.33;;
53503;SDS011;39387;50.998;22.340;2022-07-31T13:27:37;3.97;;;3.67;;
53503;SDS011;39387;50.998;22.340;2022-07-31T13:30:05;4.68;;;4.28;;
53503;SDS011;39387;50.998;22.340;2022-07-31T13:32:34;5.18;;;4.20;;
53503;SDS011;39387;50.998;22.340;2022-07-31T13:35:02;5.05;;;4.63;;
53503;SDS011;39387;50.998;22.340;2022-07-31T13:37:30;4.78;;;4.38;;
53503;SDS011;39387;50.998;22.340;2022-07-31T13:39:57;4.63;;;4.22;;
53503;SDS011;39387;50.998;22.340;2022-07-31T13:42:25;4.30;;;3.97;;
53503;SDS011;39387;50.998;22.340;2022-07-31T13:44:53;3.90;;;3.60;;
53503;SDS011;39387;50.998;22.340;2022-07-31T13:47:21;3.78;;;3.47;;
53503;SDS011;39387;50.998;22.340;2022-07-31T13:49:48;3.15;;;2.88;;
53503;SDS011;39387;50.998;22.340;2022-07-31T13:52:15;2.88;;;2.67;;
53503;SDS011;39387;50.998;22.340;2022-07-31T13:54:43;3.20;;;2.90;;
53503;SDS011;39387;50.998;22.340;2022-07-31T13:57:10;3.30;;;3.03;;
53503;SDS011;39387;50.998;22.340;2022-07-31T13:59:38;3.08;;;2.88;;
53503;SDS011;39387;50.998;22.340;2022-07-31T14:02:07;3.20;;;2.97;;
53503;SDS011;39387;50.998;22.340;2022-07-31T14:04:34;3.20;;;3.00;;
53503;SDS011;39387;50.998;22.340;2022-07-31T14:07:02;2.92;;;2.47;;
53503;SDS011;39387;50.998;22.340;2022-07-31T14:09:30;4.55;;;3.03;;
53503;SDS011;39387;50.998;22.340;2022-07-31T14:12:00;3.33;;;3.03;;
53503;SDS011;39387;50.998;22.340;2022-07-31T14:14:27;3.30;;;3.00;;
53503;SDS011;39387;50.998;22.340;2022-07-31T14:16:55;3.40;;;3.10;;
53503;SDS011;39387;50.998;22.340;2022-07-31T14:19:24;3.45;;;3.15;;
53503;SDS011;39387;50.998;22.340;2022-07-31T14:21:52;3.20;;;2.90;;
53503;SDS011;39387;50.998;22.340;2022-07-31T14:24:19;3.22;;;2.92;;
53503;SDS011;39387;50.998;22.340;2022-07-31T14:26:47;2.83;;;2.63;;
53503;SDS011;39387;50.998;22.340;2022-07-31T14:29:14;3.35;;;3.08;;
53503;SDS011;39387;50.998;22.340;2022-07-31T14:31:42;3.28;;;2.95;;
53503;SDS011;39387;50.998;22.340;2022-07-31T14:34:09;3.05;;;2.85;;
53503;SDS011;39387;50.998;22.340;2022-07-31T14:36:38;3.08;;;2.67;;
53503;SDS011;39387;50.998;22.340;2022-07-31T14:39:06;2.72;;;2.53;;